sensor_id;sensor_type;location;lat;lon;timestamp;P1;durP1;ratioP1;P2;durP2;ratioP2
32096;SDS011;18610;49.916;8.284;2023-03-21T00:01:16;14.98;;;5.85;;
32096;SDS011;18610;49.916;8.284;2023-03-21T00:03:42;11.27;;;5.28;;
32096;SDS011;18610;49.916;8.284;2023-03-21T00:06:11;11.77;;;6.03;;
32096;SDS011;18610;49.916;8.284;2023-03-21T00:08:38;11.95;;;5.18;;
32096;SDS011;18610;49.916;8.284;2023-03-21T00:11:07;13.98;;;5.55;;
32096;SDS011;18610;49.916;8.284;2023-03-21T00:13:36;9.27;;;4.70;;
32096;SDS011;18610;49.916;8.284;2023-03-21T00:16:07;15.38;;;5.07;;
32096;SDS011;18610;49.916;8.284;2023-03-21T00:18:39;14.93;;;5.07;;
32096;SDS011;18610;49.916;8.284;2023-03-21T00:21:07;12.98;;;4.75;;
32096;SDS011;18610;49.916;8.284;2023-03-21T00:23:36;13.23;;;4.57;;
32096;SDS011;18610;49.916;8.284;2023-03-21T00:26:03;12.73;;;5.05;;
32096;SDS011;18610;49.916;8.284;2023-03-21T00:28:30;10.13;;;4.40;;
32096;SDS011;18610;49.916;8.284;2023-03-21T00:30:58;14.02;;;5.10;;
32096;SDS011;18610;49.916;8.284;2023-03-21T00:33:25;11.32;;;5.20;;
32096;SDS011;18610;49.916;8.284;2023-03-21T00:35:52;10.25;;;4.55;;
32096;SDS011;18610;49.916;8.284;2023-03-21T00:38:20;12.23;;;5.30;;
32096;SDS011;18610;49.916;8.284;2023-03-21T00:40:47;15.23;;;4.95;;
32096;SDS011;18610;49.916;8.284;2023-03-21T00:43:14;10.88;;;4.80;;
32096;SDS011;18610;49.916;8.284;2023-03-21T00:45:43;11.25;;;4.72;;
32096;SDS011;18610;49.916;8.284;2023-03-21T00:48:12;11.25;;;4.88;;
32096;SDS011;18610;49.916;8.284;2023-03-21T00:50:39;12.45;;;6.00;;
32096;SDS011;18610;49.916;8.284;2023-03-21T00:53:09;11.02;;;5.03;;
32096;SDS011;18610;49.916;8.284;2023-03-21T00:55:36;13.05;;;4.75;;
32096;SDS011;18610;49.916;8.284;2023-03-21T00:58:03;9.23;;;4.47;;
32096;SDS011;18610;49.916;8.284;2023-03-21T01:00:31;18.15;;;5.18;;
32096;SDS011;18610;49.916;8.284;2023-03-21T01:03:01;15.27;;;4.35;;
32096;SDS011;18610;49.916;8.284;2023-03-21T01:05:33;9.52;;;4.03;;
32096;SDS011;18610;49.916;8.284;2023-03-21T01:08:20;10.00;;;4.38;;
32096;SDS011;18610;49.916;8.284;2023-03-21T01:10:48;11.25;;;4.38;;
32096;SDS011;18610;49.916;8.284;2023-03-21T01:13:16;7.55;;;3.50;;
32096;SDS011;18610;49.916;8.284;2023-03-21T01:15:45;11.18;;;4.57;;
32096;SDS011;18610;49.916;8.284;2023-03-21T01:18:13;13.32;;;3.78;;
32096;SDS011;18610;49.916;8.284;2023-03-21T01:20:43;8.60;;;3.65;;
32096;SDS011;18610;49.916;8.284;2023-03-21T01:23:12;12.80;;;4.25;;
32096;SDS011;18610;49.916;8.284;2023-03-21T01:25:39;11.55;;;4.15;;
32096;SDS011;18610;49.916;8.284;2023-03-21T01:28:06;10.95;;;4.35;;
32096;SDS011;18610;49.916;8.284;2023-03-21T01:30:34;10.05;;;4.30;;
32096;SDS011;18610;49.916;8.284;2023-03-21T01:33:01;10.38;;;4.60;;
32096;SDS011;18610;49.916;8.284;2023-03-21T01:35:29;12.85;;;4.57;;
32096;SDS011;18610;49.916;8.284;2023-03-21T01:37:57;15.82;;;4.95;;
32096;SDS011;18610;49.916;8.284;2023-03-21T01:40:24;9.95;;;4.07;;
32096;SDS011;18610;49.916;8.284;2023-03-21T01:42:52;8.15;;;4.40;;
32096;SDS011;18610;49.916;8.284;2023-03-21T01:48:23;10.98;;;4.03;;
32096;SDS011;18610;49.916;8.284;2023-03-21T01:50:51;10.00;;;4.32;;
32096;SDS011;18610;49.916;8.284;2023-03-21T01:53:20;11.40;;;4.82;;
32096;SDS011;18610;49.916;8.284;2023-03-21T01:55:54;15.02;;;4.38;;
32096;SDS011;18610;49.916;8.284;2023-03-21T01:58:26;18.77;;;4.72;;
32096;SDS011;18610;49.916;8.284;2023-03-21T02:00:54;15.13;;;4.47;;
32096;SDS011;18610;49.916;8.284;2023-03-21T02:03:21;12.40;;;4.75;;
32096;SDS011;18610;49.916;8.284;2023-03-21T02:05:50;10.40;;;3.97;;
32096;SDS011;18610;49.916;8.284;2023-03-21T02:08:22;16.80;;;4.70;;
32096;SDS011;18610;49.916;8.284;2023-03-21T02:10:48;10.20;;;4.45;;
32096;SDS011;18610;49.916;8.284;2023-03-21T02:13:16;17.42;;;4.88;;
32096;SDS011;18610;49.916;8.284;2023-03-21T02:15:45;13.25;;;4.75;;
32096;SDS011;18610;49.916;8.284;2023-03-21T02:18:21;11.80;;;4.68;;
32096;SDS011;18610;49.916;8.284;2023-03-21T02:27:01;7.05;;;3.90;;
32096;SDS011;18610;49.916;8.284;2023-03-21T02:29:46;6.75;;;3.72;;
32096;SDS011;18610;49.916;8.284;2023-03-21T02:32:40;10.68;;;4.13;;
32096;SDS011;18610;49.916;8.284;2023-03-21T02:35:25;10.90;;;4.60;;
32096;SDS011;18610;49.916;8.284;2023-03-21T02:38:01;14.45;;;4.50;;
32096;SDS011;18610;49.916;8.284;2023-03-21T02:40:32;12.68;;;4.00;;
32096;SDS011;18610;49.916;8.284;2023-03-21T02:43:04;12.98;;;4.70;;
32096;SDS011;18610;49.916;8.284;2023-03-21T02:45:39;10.43;;;3.92;;
32096;SDS011;18610;49.916;8.284;2023-03-21T02:48:11;11.38;;;4.78;;
32096;SDS011;18610;49.916;8.284;2023-03-21T02:50:42;12.77;;;3.97;;
32096;SDS011;18610;49.916;8.284;2023-03-21T02:53:15;9.15;;;4.57;;
32096;SDS011;18610;49.916;8.284;2023-03-21T02:55:46;10.00;;;3.88;;
32096;SDS011;18610;49.916;8.284;2023-03-21T02:58:15;9.98;;;3.72;;
32096;SDS011;18610;49.916;8.284;2023-03-21T03:00:45;9.77;;;3.85;;
32096;SDS011;18610;49.916;8.284;2023-03-21T03:03:13;11.40;;;4.00;;
32096;SDS011;18610;49.916;8.284;2023-03-21T03:05:42;8.63;;;3.63;;
32096;SDS011;18610;49.916;8.284;2023-03-21T03:08:18;7.15;;;3.55;;
32096;SDS011;18610;49.916;8.284;2023-03-21T03:10:55;8.83;;;4.10;;
32096;SDS011;18610;49.916;8.284;2023-03-21T03:13:34;8.48;;;3.90;;
32096;SDS011;18610;49.916;8.284;2023-03-21T03:16:16;7.57;;;4.05;;
32096;SDS011;18610;49.916;8.284;2023-03-21T03:18:51;9.52;;;3.95;;
32096;SDS011;18610;49.916;8.284;2023-03-21T03:21:21;8.35;;;4.13;;
32096;SDS011;18610;49.916;8.284;2023-03-21T03:23:58;5.70;;;3.42;;
32096;SDS011;18610;49.916;8.284;2023-03-21T03:28:57;16.00;;;4.78;;
32096;SDS011;18610;49.916;8.284;2023-03-21T03:31:27;15.02;;;4.00;;
32096;SDS011;18610;49.916;8.284;2023-03-21T03:33:58;14.98;;;4.15;;
32096;SDS011;18610;49.916;8.284;2023-03-21T03:36:28;10.05;;;4.25;;
32096;SDS011;18610;49.916;8.284;2023-03-21T03:39:01;14.57;;;3.75;;
32096;SDS011;18610;49.916;8.284;2023-03-21T03:41:29;7.03;;;3.97;;
32096;SDS011;18610;49.916;8.284;2023-03-21T03:44:00;7.72;;;3.55;;
32096;SDS011;18610;49.916;8.284;2023-03-21T03:46:29;13.02;;;4.25;;
32096;SDS011;18610;49.916;8.284;2023-03-21T03:48:59;21.58;;;5.47;;
32096;SDS011;18610;49.916;8.284;2023-03-21T03:53:59;11.73;;;3.97;;
32096;SDS011;18610;49.916;8.284;2023-03-21T03:56:30;6.47;;;3.83;;
32096;SDS011;18610;49.916;8.284;2023-03-21T03:58:58;12.63;;;4.10;;
32096;SDS011;18610;49.916;8.284;2023-03-21T04:01:28;9.25;;;3.83;;
32096;SDS011;18610;49.916;8.284;2023-03-21T04:03:55;8.23;;;4.07;;
32096;SDS011;18610;49.916;8.284;2023-03-21T04:06:22;8.70;;;4.22;;
32096;SDS011;18610;49.916;8.284;2023-03-21T04:08:49;10.23;;;4.03;;
32096;SDS011;18610;49.916;8.284;2023-03-21T04:11:17;12.23;;;4.40;;
32096;SDS011;18610;49.916;8.284;2023-03-21T04:13:44;12.50;;;4.05;;
32096;SDS011;18610;49.916;8.284;2023-03-21T04:16:11;8.52;;;3.83;;
32096;SDS011;18610;49.916;8.284;2023-03-21T04:18:38;10.40;;;4.38;;
32096;SDS011;18610;49.916;8.284;2023-03-21T04:21:08;9.25;;;4.28;;
32096;SDS011;18610;49.916;8.284;2023-03-21T04:23:36;15.35;;;4.57;;
32096;SDS011;18610;49.916;8.284;2023-03-21T04:26:04;15.95;;;4.65;;
32096;SDS011;18610;49.916;8.284;2023-03-21T04:28:32;11.52;;;4.82;;
32096;SDS011;18610;49.916;8.284;2023-03-21T04:31:00;12.32;;;3.90;;
32096;SDS011;18610;49.916;8.284;2023-03-21T04:33:28;11.95;;;5.20;;
32096;SDS011;18610;49.916;8.284;2023-03-21T04:35:54;52.40;;;19.40;;
32096;SDS011;18610;49.916;8.284;2023-03-21T04:38:23;18.85;;;7.70;;
32096;SDS011;18610;49.916;8.284;2023-03-21T04:40:54;18.17;;;6.87;;
32096;SDS011;18610;49.916;8.284;2023-03-21T04:43:21;17.13;;;7.18;;
32096;SDS011;18610;49.916;8.284;2023-03-21T04:45:50;24.65;;;8.00;;
32096;SDS011;18610;49.916;8.284;2023-03-21T04:48:17;22.67;;;10.52;;
32096;SDS011;18610;49.916;8.284;2023-03-21T04:50:44;33.05;;;14.98;;
32096;SDS011;18610;49.916;8.284;2023-03-21T04:53:11;27.20;;;11.75;;
32096;SDS011;18610;49.916;8.284;2023-03-21T04:55:38;24.48;;;10.05;;
32096;SDS011;18610;49.916;8.284;2023-03-21T04:58:05;20.77;;;8.63;;
32096;SDS011;18610;49.916;8.284;2023-03-21T05:00:31;21.38;;;7.45;;
32096;SDS011;18610;49.916;8.284;2023-03-21T05:03:03;19.77;;;5.68;;
32096;SDS011;18610;49.916;8.284;2023-03-21T05:05:32;11.80;;;5.07;;
32096;SDS011;18610;49.916;8.284;2023-03-21T05:08:00;14.02;;;5.25;;
32096;SDS011;18610;49.916;8.284;2023-03-21T05:10:26;16.85;;;5.30;;
32096;SDS011;18610;49.916;8.284;2023-03-21T05:12:53;14.05;;;4.78;;
32096;SDS011;18610;49.916;8.284;2023-03-21T05:15:20;16.00;;;4.72;;
32096;SDS011;18610;49.916;8.284;2023-03-21T05:17:47;16.27;;;4.90;;
32096;SDS011;18610;49.916;8.284;2023-03-21T05:20:15;17.50;;;4.80;;
32096;SDS011;18610;49.916;8.284;2023-03-21T05:22:43;14.38;;;5.28;;
32096;SDS011;18610;49.916;8.284;2023-03-21T05:25:10;14.13;;;5.35;;
32096;SDS011;18610;49.916;8.284;2023-03-21T05:27:38;16.35;;;5.20;;
32096;SDS011;18610;49.916;8.284;2023-03-21T05:30:10;15.57;;;4.68;;
32096;SDS011;18610;49.916;8.284;2023-03-21T05:32:39;9.52;;;4.60;;
32096;SDS011;18610;49.916;8.284;2023-03-21T05:35:06;10.98;;;4.80;;
32096;SDS011;18610;49.916;8.284;2023-03-21T05:37:35;9.70;;;4.63;;
32096;SDS011;18610;49.916;8.284;2023-03-21T05:40:02;15.43;;;5.63;;
32096;SDS011;18610;49.916;8.284;2023-03-21T05:42:30;19.08;;;5.53;;
32096;SDS011;18610;49.916;8.284;2023-03-21T05:44:57;14.82;;;5.75;;
32096;SDS011;18610;49.916;8.284;2023-03-21T05:47:24;13.35;;;4.25;;
32096;SDS011;18610;49.916;8.284;2023-03-21T05:49:51;16.90;;;4.82;;
32096;SDS011;18610;49.916;8.284;2023-03-21T05:52:18;16.30;;;5.82;;
32096;SDS011;18610;49.916;8.284;2023-03-21T05:54:46;16.65;;;5.75;;
32096;SDS011;18610;49.916;8.284;2023-03-21T05:57:13;13.18;;;4.40;;
32096;SDS011;18610;49.916;8.284;2023-03-21T05:59:40;18.13;;;5.40;;
32096;SDS011;18610;49.916;8.284;2023-03-21T06:02:07;19.75;;;6.07;;
32096;SDS011;18610;49.916;8.284;2023-03-21T06:04:33;17.33;;;5.75;;
32096;SDS011;18610;49.916;8.284;2023-03-21T06:07:00;15.25;;;5.57;;
32096;SDS011;18610;49.916;8.284;2023-03-21T06:09:27;10.52;;;4.43;;
32096;SDS011;18610;49.916;8.284;2023-03-21T06:11:55;15.05;;;5.40;;
32096;SDS011;18610;49.916;8.284;2023-03-21T06:14:22;18.42;;;6.35;;
32096;SDS011;18610;49.916;8.284;2023-03-21T06:16:49;22.50;;;5.90;;
32096;SDS011;18610;49.916;8.284;2023-03-21T06:19:17;14.27;;;5.10;;
32096;SDS011;18610;49.916;8.284;2023-03-21T06:21:44;16.35;;;5.60;;
32096;SDS011;18610;49.916;8.284;2023-03-21T06:24:11;20.27;;;6.05;;
32096;SDS011;18610;49.916;8.284;2023-03-21T06:26:38;21.77;;;6.95;;
32096;SDS011;18610;49.916;8.284;2023-03-21T06:29:07;17.25;;;6.38;;
32096;SDS011;18610;49.916;8.284;2023-03-21T06:31:34;15.43;;;5.78;;
32096;SDS011;18610;49.916;8.284;2023-03-21T06:34:01;16.67;;;6.60;;
32096;SDS011;18610;49.916;8.284;2023-03-21T06:36:28;15.80;;;6.13;;
32096;SDS011;18610;49.916;8.284;2023-03-21T06:38:55;22.42;;;5.88;;
32096;SDS011;18610;49.916;8.284;2023-03-21T06:41:22;13.50;;;6.22;;
32096;SDS011;18610;49.916;8.284;2023-03-21T06:43:49;17.95;;;6.45;;
32096;SDS011;18610;49.916;8.284;2023-03-21T06:46:17;16.08;;;6.40;;
32096;SDS011;18610;49.916;8.284;2023-03-21T06:48:44;18.20;;;6.63;;
32096;SDS011;18610;49.916;8.284;2023-03-21T06:51:11;17.42;;;7.45;;
32096;SDS011;18610;49.916;8.284;2023-03-21T06:53:38;19.45;;;7.15;;
32096;SDS011;18610;49.916;8.284;2023-03-21T06:56:05;15.95;;;6.47;;
32096;SDS011;18610;49.916;8.284;2023-03-21T06:58:33;17.38;;;6.15;;
32096;SDS011;18610;49.916;8.284;2023-03-21T07:01:00;20.98;;;7.47;;
32096;SDS011;18610;49.916;8.284;2023-03-21T07:03:28;13.88;;;6.90;;
32096;SDS011;18610;49.916;8.284;2023-03-21T07:05:55;23.42;;;7.03;;
32096;SDS011;18610;49.916;8.284;2023-03-21T07:08:22;17.77;;;7.47;;
32096;SDS011;18610;49.916;8.284;2023-03-21T07:10:49;27.00;;;7.45;;
32096;SDS011;18610;49.916;8.284;2023-03-21T07:13:20;24.30;;;7.88;;
32096;SDS011;18610;49.916;8.284;2023-03-21T07:15:46;19.42;;;8.38;;
32096;SDS011;18610;49.916;8.284;2023-03-21T07:18:13;15.75;;;6.75;;
32096;SDS011;18610;49.916;8.284;2023-03-21T07:20:44;18.45;;;7.53;;
32096;SDS011;18610;49.916;8.284;2023-03-21T07:23:14;31.38;;;7.80;;
32096;SDS011;18610;49.916;8.284;2023-03-21T07:25:41;20.25;;;6.97;;
32096;SDS011;18610;49.916;8.284;2023-03-21T07:28:08;16.90;;;7.32;;
32096;SDS011;18610;49.916;8.284;2023-03-21T07:30:35;16.23;;;6.85;;
32096;SDS011;18610;49.916;8.284;2023-03-21T07:33:01;28.50;;;7.05;;
32096;SDS011;18610;49.916;8.284;2023-03-21T07:35:28;14.88;;;6.57;;
32096;SDS011;18610;49.916;8.284;2023-03-21T07:37:56;18.73;;;7.20;;
32096;SDS011;18610;49.916;8.284;2023-03-21T07:40:23;16.60;;;7.57;;
32096;SDS011;18610;49.916;8.284;2023-03-21T07:42:50;13.73;;;6.28;;
32096;SDS011;18610;49.916;8.284;2023-03-21T07:45:17;15.65;;;6.28;;
32096;SDS011;18610;49.916;8.284;2023-03-21T07:47:46;21.52;;;6.18;;
32096;SDS011;18610;49.916;8.284;2023-03-21T07:50:13;16.13;;;6.93;;
32096;SDS011;18610;49.916;8.284;2023-03-21T07:52:41;20.45;;;6.25;;
32096;SDS011;18610;49.916;8.284;2023-03-21T07:55:09;16.00;;;5.85;;
32096;SDS011;18610;49.916;8.284;2023-03-21T07:57:37;20.88;;;6.47;;
32096;SDS011;18610;49.916;8.284;2023-03-21T08:00:04;15.30;;;5.85;;
32096;SDS011;18610;49.916;8.284;2023-03-21T08:02:31;21.15;;;6.28;;
32096;SDS011;18610;49.916;8.284;2023-03-21T08:04:58;12.63;;;5.20;;
32096;SDS011;18610;49.916;8.284;2023-03-21T08:07:25;22.00;;;6.65;;
32096;SDS011;18610;49.916;8.284;2023-03-21T08:09:52;14.25;;;5.57;;
32096;SDS011;18610;49.916;8.284;2023-03-21T08:12:20;17.15;;;5.43;;
32096;SDS011;18610;49.916;8.284;2023-03-21T08:14:46;19.35;;;5.78;;
32096;SDS011;18610;49.916;8.284;2023-03-21T08:17:13;25.33;;;5.75;;
32096;SDS011;18610;49.916;8.284;2023-03-21T08:19:40;13.50;;;5.65;;
32096;SDS011;18610;49.916;8.284;2023-03-21T08:22:07;20.05;;;6.15;;
32096;SDS011;18610;49.916;8.284;2023-03-21T08:24:34;13.73;;;4.93;;
32096;SDS011;18610;49.916;8.284;2023-03-21T08:27:01;17.83;;;5.65;;
32096;SDS011;18610;49.916;8.284;2023-03-21T08:29:30;18.67;;;5.95;;
32096;SDS011;18610;49.916;8.284;2023-03-21T08:31:56;16.20;;;5.30;;
32096;SDS011;18610;49.916;8.284;2023-03-21T08:34:23;15.18;;;5.20;;
32096;SDS011;18610;49.916;8.284;2023-03-21T08:36:50;14.73;;;5.28;;
32096;SDS011;18610;49.916;8.284;2023-03-21T08:39:17;14.25;;;4.90;;
32096;SDS011;18610;49.916;8.284;2023-03-21T08:41:45;14.13;;;4.90;;
32096;SDS011;18610;49.916;8.284;2023-03-21T08:44:12;12.45;;;5.05;;
32096;SDS011;18610;49.916;8.284;2023-03-21T08:46:42;13.82;;;4.97;;
32096;SDS011;18610;49.916;8.284;2023-03-21T08:49:09;13.23;;;5.30;;
32096;SDS011;18610;49.916;8.284;2023-03-21T08:51:36;13.00;;;4.70;;
32096;SDS011;18610;49.916;8.284;2023-03-21T08:54:05;16.67;;;4.88;;
32096;SDS011;18610;49.916;8.284;2023-03-21T08:56:32;15.45;;;4.65;;
32096;SDS011;18610;49.916;8.284;2023-03-21T08:58:58;10.32;;;4.63;;
32096;SDS011;18610;49.916;8.284;2023-03-21T09:01:26;16.23;;;5.03;;
32096;SDS011;18610;49.916;8.284;2023-03-21T09:03:55;19.90;;;5.95;;
32096;SDS011;18610;49.916;8.284;2023-03-21T09:06:21;15.85;;;4.75;;
32096;SDS011;18610;49.916;8.284;2023-03-21T09:08:48;19.35;;;4.75;;
32096;SDS011;18610;49.916;8.284;2023-03-21T09:11:16;13.43;;;4.95;;
32096;SDS011;18610;49.916;8.284;2023-03-21T09:13:43;19.52;;;5.43;;
32096;SDS011;18610;49.916;8.284;2023-03-21T09:16:10;16.65;;;5.15;;
32096;SDS011;18610;49.916;8.284;2023-03-21T09:18:37;13.73;;;4.90;;
32096;SDS011;18610;49.916;8.284;2023-03-21T09:21:12;13.02;;;4.53;;
32096;SDS011;18610;49.916;8.284;2023-03-21T09:23:40;16.88;;;5.47;;
32096;SDS011;18610;49.916;8.284;2023-03-21T09:26:09;22.55;;;4.95;;
32096;SDS011;18610;49.916;8.284;2023-03-21T09:28:37;13.52;;;5.43;;
32096;SDS011;18610;49.916;8.284;2023-03-21T09:31:05;14.80;;;5.70;;
32096;SDS011;18610;49.916;8.284;2023-03-21T09:33:36;15.45;;;5.63;;
32096;SDS011;18610;49.916;8.284;2023-03-21T09:36:04;12.88;;;4.95;;
32096;SDS011;18610;49.916;8.284;2023-03-21T09:38:37;18.77;;;6.82;;
32096;SDS011;18610;49.916;8.284;2023-03-21T09:41:07;16.33;;;6.57;;
32096;SDS011;18610;49.916;8.284;2023-03-21T09:43:46;17.92;;;5.20;;
32096;SDS011;18610;49.916;8.284;2023-03-21T09:46:23;15.02;;;6.00;;
32096;SDS011;18610;49.916;8.284;2023-03-21T09:48:57;12.65;;;5.40;;
32096;SDS011;18610;49.916;8.284;2023-03-21T09:51:27;15.13;;;5.95;;
32096;SDS011;18610;49.916;8.284;2023-03-21T09:54:00;17.45;;;5.68;;
32096;SDS011;18610;49.916;8.284;2023-03-21T09:56:32;13.48;;;5.90;;
32096;SDS011;18610;49.916;8.284;2023-03-21T09:59:01;20.65;;;6.10;;
32096;SDS011;18610;49.916;8.284;2023-03-21T10:01:31;25.98;;;5.95;;
32096;SDS011;18610;49.916;8.284;2023-03-21T10:04:06;15.95;;;5.97;;
32096;SDS011;18610;49.916;8.284;2023-03-21T10:06:37;21.65;;;5.57;;
32096;SDS011;18610;49.916;8.284;2023-03-21T10:09:10;10.23;;;5.05;;
32096;SDS011;18610;49.916;8.284;2023-03-21T10:11:40;13.98;;;5.63;;
32096;SDS011;18610;49.916;8.284;2023-03-21T10:14:12;18.25;;;5.45;;
32096;SDS011;18610;49.916;8.284;2023-03-21T10:16:44;15.85;;;6.20;;
32096;SDS011;18610;49.916;8.284;2023-03-21T10:19:14;16.50;;;5.53;;
32096;SDS011;18610;49.916;8.284;2023-03-21T10:21:44;15.38;;;5.40;;
32096;SDS011;18610;49.916;8.284;2023-03-21T10:24:15;18.73;;;5.50;;
32096;SDS011;18610;49.916;8.284;2023-03-21T10:26:44;21.35;;;6.53;;
32096;SDS011;18610;49.916;8.284;2023-03-21T10:29:13;15.23;;;5.55;;
32096;SDS011;18610;49.916;8.284;2023-03-21T10:31:42;21.38;;;6.25;;
32096;SDS011;18610;49.916;8.284;2023-03-21T10:34:12;19.02;;;5.35;;
32096;SDS011;18610;49.916;8.284;2023-03-21T10:36:42;14.18;;;5.65;;
32096;SDS011;18610;49.916;8.284;2023-03-21T10:39:13;11.82;;;5.70;;
32096;SDS011;18610;49.916;8.284;2023-03-21T10:41:46;16.27;;;5.47;;
32096;SDS011;18610;49.916;8.284;2023-03-21T10:44:15;15.98;;;6.78;;
32096;SDS011;18610;49.916;8.284;2023-03-21T10:46:50;21.90;;;6.43;;
32096;SDS011;18610;49.916;8.284;2023-03-21T10:49:19;18.52;;;6.32;;
32096;SDS011;18610;49.916;8.284;2023-03-21T10:51:46;17.63;;;5.95;;
32096;SDS011;18610;49.916;8.284;2023-03-21T10:54:17;13.68;;;6.05;;
32096;SDS011;18610;49.916;8.284;2023-03-21T10:56:50;19.13;;;6.50;;
32096;SDS011;18610;49.916;8.284;2023-03-21T10:59:21;16.25;;;7.10;;
32096;SDS011;18610;49.916;8.284;2023-03-21T11:01:50;14.80;;;5.93;;
32096;SDS011;18610;49.916;8.284;2023-03-21T11:04:21;17.90;;;6.88;;
32096;SDS011;18610;49.916;8.284;2023-03-21T11:06:51;17.83;;;6.03;;
32096;SDS011;18610;49.916;8.284;2023-03-21T11:09:20;11.35;;;6.22;;
32096;SDS011;18610;49.916;8.284;2023-03-21T11:11:51;14.23;;;6.18;;
32096;SDS011;18610;49.916;8.284;2023-03-21T11:17:18;16.27;;;6.47;;
32096;SDS011;18610;49.916;8.284;2023-03-21T11:19:47;13.50;;;6.43;;
32096;SDS011;18610;49.916;8.284;2023-03-21T11:22:16;20.52;;;6.40;;
32096;SDS011;18610;49.916;8.284;2023-03-21T11:24:47;20.73;;;6.95;;
32096;SDS011;18610;49.916;8.284;2023-03-21T11:27:18;16.88;;;6.38;;
32096;SDS011;18610;49.916;8.284;2023-03-21T11:29:45;19.13;;;6.75;;
32096;SDS011;18610;49.916;8.284;2023-03-21T11:32:18;17.92;;;6.88;;
32096;SDS011;18610;49.916;8.284;2023-03-21T11:34:47;18.58;;;7.55;;
32096;SDS011;18610;49.916;8.284;2023-03-21T11:37:18;23.40;;;8.55;;
32096;SDS011;18610;49.916;8.284;2023-03-21T11:39:53;15.02;;;6.35;;
32096;SDS011;18610;49.916;8.284;2023-03-21T11:42:26;19.02;;;6.80;;
32096;SDS011;18610;49.916;8.284;2023-03-21T11:45:02;14.77;;;6.38;;
32096;SDS011;18610;49.916;8.284;2023-03-21T11:47:37;21.45;;;7.53;;
32096;SDS011;18610;49.916;8.284;2023-03-21T11:50:15;13.80;;;6.82;;
32096;SDS011;18610;49.916;8.284;2023-03-21T11:52:47;17.73;;;7.45;;
32096;SDS011;18610;49.916;8.284;2023-03-21T11:55:23;21.70;;;9.00;;
32096;SDS011;18610;49.916;8.284;2023-03-21T11:58:15;20.60;;;7.13;;
32096;SDS011;18610;49.916;8.284;2023-03-21T12:00:56;28.73;;;6.38;;
32096;SDS011;18610;49.916;8.284;2023-03-21T12:03:45;12.25;;;5.82;;
32096;SDS011;18610;49.916;8.284;2023-03-21T12:06:17;17.40;;;6.28;;
32096;SDS011;18610;49.916;8.284;2023-03-21T12:08:50;17.40;;;5.72;;
32096;SDS011;18610;49.916;8.284;2023-03-21T12:11:28;12.38;;;5.80;;
32096;SDS011;18610;49.916;8.284;2023-03-21T12:14:04;17.88;;;6.30;;
32096;SDS011;18610;49.916;8.284;2023-03-21T12:16:49;12.13;;;5.40;;
32096;SDS011;18610;49.916;8.284;2023-03-21T12:19:46;10.45;;;5.32;;
32096;SDS011;18610;49.916;8.284;2023-03-21T12:22:26;11.75;;;5.13;;
32096;SDS011;18610;49.916;8.284;2023-03-21T12:24:59;13.80;;;5.50;;
32096;SDS011;18610;49.916;8.284;2023-03-21T12:27:36;10.00;;;4.95;;
32096;SDS011;18610;49.916;8.284;2023-03-21T12:30:17;9.10;;;4.38;;
32096;SDS011;18610;49.916;8.284;2023-03-21T12:32:57;9.10;;;5.07;;
32096;SDS011;18610;49.916;8.284;2023-03-21T12:35:36;7.70;;;4.32;;
32096;SDS011;18610;49.916;8.284;2023-03-21T12:38:14;13.23;;;5.00;;
32096;SDS011;18610;49.916;8.284;2023-03-21T12:40:47;13.05;;;4.88;;
32096;SDS011;18610;49.916;8.284;2023-03-21T12:43:32;19.35;;;5.20;;
32096;SDS011;18610;49.916;8.284;2023-03-21T12:46:10;7.88;;;4.20;;
32096;SDS011;18610;49.916;8.284;2023-03-21T12:48:44;11.48;;;4.15;;
32096;SDS011;18610;49.916;8.284;2023-03-21T12:51:15;13.25;;;5.35;;
32096;SDS011;18610;49.916;8.284;2023-03-21T12:53:53;7.70;;;3.80;;
32096;SDS011;18610;49.916;8.284;2023-03-21T12:56:24;13.68;;;4.72;;
32096;SDS011;18610;49.916;8.284;2023-03-21T12:58:56;11.88;;;4.70;;
32096;SDS011;18610;49.916;8.284;2023-03-21T13:01:29;8.70;;;4.60;;
32096;SDS011;18610;49.916;8.284;2023-03-21T13:04:04;14.35;;;5.22;;
32096;SDS011;18610;49.916;8.284;2023-03-21T13:06:39;9.82;;;3.80;;
32096;SDS011;18610;49.916;8.284;2023-03-21T13:09:09;9.57;;;4.53;;
32096;SDS011;18610;49.916;8.284;2023-03-21T13:11:42;9.07;;;4.70;;
32096;SDS011;18610;49.916;8.284;2023-03-21T13:14:11;10.15;;;5.03;;
32096;SDS011;18610;49.916;8.284;2023-03-21T13:16:44;8.07;;;4.10;;
32096;SDS011;18610;49.916;8.284;2023-03-21T13:19:17;12.23;;;5.00;;
32096;SDS011;18610;49.916;8.284;2023-03-21T13:21:50;9.18;;;5.15;;
32096;SDS011;18610;49.916;8.284;2023-03-21T13:24:23;14.13;;;5.60;;
32096;SDS011;18610;49.916;8.284;2023-03-21T13:27:00;9.80;;;4.90;;
32096;SDS011;18610;49.916;8.284;2023-03-21T13:29:31;10.52;;;5.07;;
32096;SDS011;18610;49.916;8.284;2023-03-21T13:32:14;7.63;;;5.03;;
32096;SDS011;18610;49.916;8.284;2023-03-21T13:34:53;7.63;;;4.70;;
32096;SDS011;18610;49.916;8.284;2023-03-21T13:37:21;9.68;;;5.03;;
32096;SDS011;18610;49.916;8.284;2023-03-21T13:39:51;10.05;;;5.22;;
32096;SDS011;18610;49.916;8.284;2023-03-21T13:42:20;10.98;;;5.03;;
32096;SDS011;18610;49.916;8.284;2023-03-21T13:44:49;16.05;;;6.43;;
32096;SDS011;18610;49.916;8.284;2023-03-21T13:50:25;11.82;;;5.57;;
32096;SDS011;18610;49.916;8.284;2023-03-21T13:53:15;12.02;;;5.40;;
32096;SDS011;18610;49.916;8.284;2023-03-21T13:55:56;13.13;;;5.32;;
32096;SDS011;18610;49.916;8.284;2023-03-21T13:58:56;9.90;;;5.22;;
32096;SDS011;18610;49.916;8.284;2023-03-21T14:04:25;18.17;;;6.55;;
32096;SDS011;18610;49.916;8.284;2023-03-21T14:06:57;12.60;;;6.22;;
32096;SDS011;18610;49.916;8.284;2023-03-21T14:09:28;17.02;;;6.13;;
32096;SDS011;18610;49.916;8.284;2023-03-21T14:11:58;14.40;;;6.30;;
32096;SDS011;18610;49.916;8.284;2023-03-21T14:14:28;12.05;;;6.45;;
32096;SDS011;18610;49.916;8.284;2023-03-21T14:16:59;17.10;;;7.75;;
32096;SDS011;18610;49.916;8.284;2023-03-21T14:19:31;14.38;;;7.10;;
32096;SDS011;18610;49.916;8.284;2023-03-21T14:21:58;12.50;;;6.20;;
32096;SDS011;18610;49.916;8.284;2023-03-21T14:24:25;18.13;;;6.50;;
32096;SDS011;18610;49.916;8.284;2023-03-21T14:26:54;14.10;;;7.03;;
32096;SDS011;18610;49.916;8.284;2023-03-21T14:29:24;18.67;;;7.80;;
32096;SDS011;18610;49.916;8.284;2023-03-21T14:31:54;19.95;;;7.50;;
32096;SDS011;18610;49.916;8.284;2023-03-21T14:34:24;17.52;;;7.20;;
32096;SDS011;18610;49.916;8.284;2023-03-21T14:36:54;12.85;;;7.40;;
32096;SDS011;18610;49.916;8.284;2023-03-21T14:39:22;15.25;;;6.90;;
32096;SDS011;18610;49.916;8.284;2023-03-21T14:41:53;12.63;;;6.88;;
32096;SDS011;18610;49.916;8.284;2023-03-21T14:44:22;16.05;;;7.13;;
32096;SDS011;18610;49.916;8.284;2023-03-21T14:46:51;18.17;;;6.88;;
32096;SDS011;18610;49.916;8.284;2023-03-21T14:49:20;13.32;;;6.10;;
32096;SDS011;18610;49.916;8.284;2023-03-21T14:51:52;18.07;;;7.10;;
32096;SDS011;18610;49.916;8.284;2023-03-21T14:54:22;15.82;;;7.47;;
32096;SDS011;18610;49.916;8.284;2023-03-21T14:56:51;16.50;;;7.15;;
32096;SDS011;18610;49.916;8.284;2023-03-21T14:59:24;15.60;;;6.57;;
32096;SDS011;18610;49.916;8.284;2023-03-21T15:04:26;16.20;;;7.20;;
32096;SDS011;18610;49.916;8.284;2023-03-21T15:06:56;17.27;;;6.78;;
32096;SDS011;18610;49.916;8.284;2023-03-21T15:09:26;15.98;;;8.00;;
32096;SDS011;18610;49.916;8.284;2023-03-21T15:11:54;22.00;;;7.00;;
32096;SDS011;18610;49.916;8.284;2023-03-21T15:14:23;14.15;;;6.50;;
32096;SDS011;18610;49.916;8.284;2023-03-21T15:16:54;12.05;;;6.95;;
32096;SDS011;18610;49.916;8.284;2023-03-21T15:19:27;11.00;;;6.53;;